Time;durP1;ratioP1;P1;durP2;ratioP2;P2;SDS_P1;SDS_P2;PMS_P1;PMS_P2;Temp;Humidity;BMP_temperature;BMP_pressure;BME280_temperature;BME280_humidity;BME280_pressure;Samples;Min_cycle;Max_cycle;Signal;HPM_P1;HPM_P2
2022/11/10 00:01:51;;;;;;;;;;;;;;;17.47;51.10;101414.28;4993187;28;20015;-33
2022/11/10 00:04:16;;;;;;;;;;;;;;;17.49;51.07;101417.53;4992023;28;20069;-33
2022/11/10 00:06:43;;;;;;;;;;;;;;;17.49;50.89;101423.75;4995816;28;20323;-33
2022/11/10 00:09:08;;;;;;;;;;;;;;;17.51;50.91;101421.59;4999134;28;19991;-33
2022/11/10 00:11:34;;;;;;;;;;;;;;;17.47;50.82;101419.72;4994267;28;20012;-33
2022/11/10 00:17:03;;;;;;;;;;;;;;;17.46;50.84;101420.81;4992066;28;19925;-33
2022/11/10 00:19:29;;;;;;;;;;;;;;;17.45;50.63;101430.03;4999018;28;19923;-33
2022/11/10 00:21:54;;;;;;;;;;;;;;;17.40;50.73;101430.00;4998060;28;20008;-33
2022/11/10 00:24:20;;;;;;;;;;;;;;;17.35;50.75;101432.75;4990640;28;20028;-33
2022/11/10 00:26:46;;;;;;;;;;;;;;;17.31;50.62;101432.50;4995114;28;20443;-33
2022/11/10 00:29:11;;;;;;;;;;;;;;;17.22;50.62;101429.53;4997856;28;19924;-33
2022/11/10 00:31:37;;;;;;;;;;;;;;;17.15;50.87;101439.03;4999842;28;19972;-33
2022/11/10 00:34:02;;;;;;;;;;;;;;;17.12;50.80;101429.59;4993736;28;19925;-33
2022/11/10 00:36:28;;;;;;;;;;;;;;;17.09;50.81;101440.97;4994544;28;20368;-33
2022/11/10 00:38:53;;;;;;;;;;;;;;;17.10;50.94;101439.06;4994650;28;19925;-33
2022/11/10 00:41:18;;;;;;;;;;;;;;;17.11;50.71;101444.22;4998137;28;19967;-33
2022/11/10 00:43:44;;;;;;;;;;;;;;;17.14;50.62;101440.13;4997781;28;20011;-33
2022/11/10 00:46:09;;;;;;;;;;;;;;;17.15;50.68;101439.84;4994729;28;19956;-33
2022/11/10 00:48:34;;;;;;;;;;;;;;;17.17;50.63;101443.09;4994111;28;19925;-33
2022/11/10 00:51:00;;;;;;;;;;;;;;;17.19;50.53;101443.63;4995634;28;19921;-33
2022/11/10 00:53:25;;;;;;;;;;;;;;;17.14;50.46;101440.94;4999425;28;19921;-33
2022/11/10 00:55:50;;;;;;;;;;;;;;;17.15;50.29;101444.47;4999179;28;19928;-33
2022/11/10 00:58:16;;;;;;;;;;;;;;;17.11;50.58;101441.50;4993293;28;19917;-33
2022/11/10 01:00:41;;;;;;;;;;;;;;;17.17;50.24;101445.81;4990179;28;19925;-33
2022/11/10 01:03:07;;;;;;;;;;;;;;;17.18;50.36;101438.50;5001273;28;19921;-33
2022/11/10 01:05:36;;;;;;;;;;;;;;;17.20;50.17;101447.16;5000060;28;19928;-33
2022/11/10 01:08:01;;;;;;;;;;;;;;;17.21;50.03;101446.06;4993610;28;19926;-33
2022/11/10 01:10:27;;;;;;;;;;;;;;;17.20;50.04;101442.53;4999006;28;19925;-33
2022/11/10 01:12:53;;;;;;;;;;;;;;;17.24;50.11;101450.94;4994919;28;19924;-33
2022/11/10 01:15:19;;;;;;;;;;;;;;;17.24;49.97;101452.84;4996605;28;19917;-34
2022/11/10 01:17:44;;;;;;;;;;;;;;;17.26;50.04;101454.19;4994513;28;19928;-33
2022/11/10 01:20:09;;;;;;;;;;;;;;;17.26;49.75;101456.09;4997420;28;20389;-33
2022/11/10 01:22:35;;;;;;;;;;;;;;;17.24;49.78;101452.84;4992017;28;19918;-33
2022/11/10 01:25:00;;;;;;;;;;;;;;;17.25;49.65;101459.88;4995865;28;20027;-33
2022/11/10 01:27:25;;;;;;;;;;;;;;;17.24;49.63;101460.97;5000437;28;19924;-33
2022/11/10 01:29:51;;;;;;;;;;;;;;;17.20;49.80;101461.50;4990034;28;19976;-33
2022/11/10 01:32:16;;;;;;;;;;;;;;;17.20;49.92;101464.22;4997040;28;20398;-33
2022/11/10 01:34:41;;;;;;;;;;;;;;;17.25;49.80;101463.41;4993307;28;20426;-33
2022/11/10 01:37:07;;;;;;;;;;;;;;;17.24;49.70;101467.19;4997726;28;19921;-33
2022/11/10 01:39:32;;;;;;;;;;;;;;;17.24;49.78;101471.81;4994599;28;19960;-33
2022/11/10 01:41:57;;;;;;;;;;;;;;;17.30;49.76;101471.50;4994103;28;19931;-33
2022/11/10 01:44:24;;;;;;;;;;;;;;;17.31;49.72;101475.03;4992617;28;19921;-33
2022/11/10 01:46:49;;;;;;;;;;;;;;;17.32;49.66;101479.34;4989093;28;19926;-33
2022/11/10 01:49:18;;;;;;;;;;;;;;;17.30;49.58;101479.63;5000509;28;19921;-33
2022/11/10 01:51:43;;;;;;;;;;;;;;;17.32;49.45;101479.34;4996834;28;20395;-33
2022/11/10 01:54:11;;;;;;;;;;;;;;;17.31;49.57;101481.25;4989213;28;19921;-33
2022/11/10 01:56:39;;;;;;;;;;;;;;;17.34;49.40;101479.88;4991766;28;20323;-33
2022/11/10 01:59:06;;;;;;;;;;;;;;;17.37;49.53;101484.75;4993447;28;20367;-33
2022/11/10 02:01:32;;;;;;;;;;;;;;;17.41;49.42;101481.19;4989806;28;19917;-33
2022/11/10 02:04:02;;;;;;;;;;;;;;;17.43;49.36;101492.59;4994143;28;19929;-33
2022/11/10 02:06:30;;;;;;;;;;;;;;;17.49;49.21;101487.97;4998676;28;20401;-33
2022/11/10 02:08:57;;;;;;;;;;;;;;;17.47;49.20;101487.44;4993677;28;19921;-33
2022/11/10 02:11:22;;;;;;;;;;;;;;;17.48;49.32;101498.00;4997638;28;19925;-33
2022/11/10 02:13:48;;;;;;;;;;;;;;;17.49;49.18;101496.09;4989487;28;20418;-33
2022/11/10 02:16:13;;;;;;;;;;;;;;;17.49;49.07;101498.81;4996334;28;19960;-33
2022/11/10 02:18:39;;;;;;;;;;;;;;;17.53;49.12;101508.00;4992867;28;20434;-33
2022/11/10 02:21:05;;;;;;;;;;;;;;;17.52;49.07;101509.91;4993635;28;19925;-33
2022/11/10 02:23:32;;;;;;;;;;;;;;;17.55;49.21;101510.44;4996437;28;19943;-33
2022/11/10 02:25:57;;;;;;;;;;;;;;;17.55;49.12;101511.25;4993500;28;19921;-33
2022/11/10 02:28:23;;;;;;;;;;;;;;;17.59;49.08;101517.72;4991941;28;20308;-33
2022/11/10 02:30:49;;;;;;;;;;;;;;;17.60;49.23;101511.25;4992920;28;19929;-33
2022/11/10 02:33:17;;;;;;;;;;;;;;;17.63;48.95;101518.00;4996644;28;19929;-33
2022/11/10 02:35:43;;;;;;;;;;;;;;;17.64;48.71;101525.84;4989690;28;19918;-33
2022/11/10 02:38:09;;;;;;;;;;;;;;;17.65;48.78;101522.06;4997086;28;19944;-34
2022/11/10 02:40:34;;;;;;;;;;;;;;;17.63;48.68;101529.66;4993586;28;20276;-33
2022/11/10 02:43:00;;;;;;;;;;;;;;;17.61;48.86;101534.53;4993787;28;20354;-33
2022/11/10 02:45:25;;;;;;;;;;;;;;;17.63;48.77;101524.25;4995895;28;19928;-33
2022/11/10 02:47:50;;;;;;;;;;;;;;;17.61;48.79;101534.53;4997959;28;20001;-33
2022/11/10 02:50:16;;;;;;;;;;;;;;;17.60;48.88;101537.53;4992105;28;19924;-33
2022/11/10 02:52:41;;;;;;;;;;;;;;;17.63;48.52;101531.56;4995521;28;19922;-33
2022/11/10 02:55:07;;;;;;;;;;;;;;;17.60;48.69;101534.81;4995874;28;20023;-33
2022/11/10 02:57:32;;;;;;;;;;;;;;;17.61;48.75;101536.44;4990195;28;19918;-33
2022/11/10 02:59:57;;;;;;;;;;;;;;;17.58;48.74;101543.19;4990829;28;19933;-33
2022/11/10 03:02:22;;;;;;;;;;;;;;;17.60;48.88;101543.75;4993310;28;19922;-33
2022/11/10 03:04:48;;;;;;;;;;;;;;;17.65;48.86;101546.44;4994395;28;20149;-33
2022/11/10 03:07:13;;;;;;;;;;;;;;;17.67;48.77;101555.09;4996880;28;19918;-33
2022/11/10 03:09:38;;;;;;;;;;;;;;;17.72;48.75;101559.72;4999201;28;19925;-33
2022/11/10 03:12:04;;;;;;;;;;;;;;;17.75;48.68;101559.16;4996403;28;20020;-33
2022/11/10 03:14:29;;;;;;;;;;;;;;;17.77;48.45;101557.84;4997055;28;20030;-33
2022/11/10 03:16:54;;;;;;;;;;;;;;;17.76;48.69;101556.19;4999102;28;19929;-33
2022/11/10 03:19:20;;;;;;;;;;;;;;;17.77;48.54;101565.97;4997090;28;19938;-33
2022/11/10 03:21:45;;;;;;;;;;;;;;;17.83;48.54;101568.66;4994936;28;19924;-33
2022/11/10 03:24:11;;;;;;;;;;;;;;;17.80;48.41;101572.72;4997753;28;19921;-33
2022/11/10 03:26:36;;;;;;;;;;;;;;;17.78;48.63;101570.28;4995319;28;20302;-33
2022/11/10 03:29:01;;;;;;;;;;;;;;;17.77;48.74;101576.81;4994823;28;20065;-33
2022/11/10 03:31:27;;;;;;;;;;;;;;;17.81;48.34;101577.88;4996065;28;19929;-33
2022/11/10 03:33:52;;;;;;;;;;;;;;;17.80;48.64;101578.16;4995765;28;19918;-33
2022/11/10 03:36:17;;;;;;;;;;;;;;;17.80;48.52;101578.97;4996198;28;20272;-33
2022/11/10 03:38:43;;;;;;;;;;;;;;;17.85;48.62;101580.03;4997141;28;20310;-33
2022/11/10 03:41:08;;;;;;;;;;;;;;;17.90;48.41;101588.13;4994644;28;20095;-33
2022/11/10 03:43:33;;;;;;;;;;;;;;;17.89;48.45;101587.31;4994780;28;20067;-33
2022/11/10 03:45:58;;;;;;;;;;;;;;;17.89;48.35;101594.63;4994906;28;20433;-33
2022/11/10 03:48:24;;;;;;;;;;;;;;;17.86;48.29;101590.59;4996386;28;19917;-33
2022/11/10 03:50:49;;;;;;;;;;;;;;;17.83;48.27;101599.28;4986948;28;19924;-33
2022/11/10 03:53:14;;;;;;;;;;;;;;;17.80;48.21;101600.66;4991831;28;19918;-33
2022/11/10 03:55:40;;;;;;;;;;;;;;;17.81;48.38;101606.88;4995142;28;19917;-33
2022/11/10 03:58:05;;;;;;;;;;;;;;;17.83;48.32;101601.19;4995378;28;20315;-33
2022/11/10 04:00:30;;;;;;;;;;;;;;;17.83;48.30;101603.88;4996130;28;20051;-33
2022/11/10 04:02:56;;;;;;;;;;;;;;;17.83;48.30;101603.88;4994754;28;19921;-33
2022/11/10 04:10:54;;;;;;;;;;;;;;;17.76;48.19;101613.09;4995375;28;19968;-33
2022/11/10 04:16:04;;;;;;;;;;;;;;;17.71;48.35;101621.25;4996954;28;19924;-33
2022/11/10 04:18:29;;;;;;;;;;;;;;;17.68;48.41;101623.72;4992582;28;20314;-33
2022/11/10 04:20:56;;;;;;;;;;;;;;;17.72;48.40;101622.88;4994931;28;20283;-33
2022/11/10 04:23:29;;;;;;;;;;;;;;;17.70;48.49;101633.19;4995598;28;20236;-33
2022/11/10 04:28:51;;;;;;;;;;;;;;;17.83;48.38;101649.97;4993251;28;20406;-33
2022/11/10 04:31:17;;;;;;;;;;;;;;;17.89;48.25;101655.09;4994276;28;19925;-33
2022/11/10 04:33:43;;;;;;;;;;;;;;;17.93;48.35;101650.75;4997172;28;20311;-33
2022/11/10 04:36:09;;;;;;;;;;;;;;;17.95;48.25;101666.72;4992845;28;19967;-33
2022/11/10 04:38:34;;;;;;;;;;;;;;;17.95;48.18;101662.13;4996947;28;20058;-35
2022/11/10 04:41:00;;;;;;;;;;;;;;;17.97;48.01;101664.59;4994535;28;20004;-35
2022/11/10 04:43:26;;;;;;;;;;;;;;;17.97;47.93;101659.97;4994484;28;19921;-34
2022/11/10 04:45:51;;;;;;;;;;;;;;;17.99;48.03;101667.81;4994915;28;19932;-35
2022/11/10 04:48:16;;;;;;;;;;;;;;;17.99;47.71;101671.34;4991999;28;19933;-35
2022/11/10 04:50:42;;;;;;;;;;;;;;;17.96;47.86;101676.53;4991130;28;19925;-35
2022/11/10 04:53:07;;;;;;;;;;;;;;;17.96;48.07;101677.34;4991020;28;19941;-35
2022/11/10 04:55:32;;;;;;;;;;;;;;;17.99;48.03;101682.19;4994932;28;19925;-34
2022/11/10 04:57:58;;;;;;;;;;;;;;;18.00;47.95;101685.72;4995011;28;19925;-35
2022/11/10 05:00:23;;;;;;;;;;;;;;;17.98;47.96;101690.63;4990221;28;20380;-34
2022/11/10 05:02:48;;;;;;;;;;;;;;;17.96;47.98;101682.75;4992210;28;20256;-34
2022/11/10 05:05:14;;;;;;;;;;;;;;;17.95;48.05;101694.66;4991454;28;19922;-35
2022/11/10 05:07:39;;;;;;;;;;;;;;;17.94;48.21;101694.94;4993963;28;20024;-35
2022/11/10 05:10:04;;;;;;;;;;;;;;;17.98;48.06;101696.84;4992264;28;20019;-34
2022/11/10 05:12:30;;;;;;;;;;;;;;;17.99;47.96;101701.19;4991434;28;19918;-34
2022/11/10 05:14:55;;;;;;;;;;;;;;;18.04;47.81;101700.34;4992752;28;19918;-34
2022/11/10 05:17:21;;;;;;;;;;;;;;;17.98;48.07;101706.88;4992297;28;19932;-34
2022/11/10 05:19:46;;;;;;;;;;;;;;;17.99;48.13;101709.31;4992111;28;19925;-34
2022/11/10 05:22:12;;;;;;;;;;;;;;;18.02;48.03;101708.75;4993298;28;20002;-34
2022/11/10 05:24:37;;;;;;;;;;;;;;;18.01;47.76;101707.13;4991260;28;19921;-35
2022/11/10 05:27:03;;;;;;;;;;;;;;;17.97;47.79;101716.91;4992764;28;19972;-34
2022/11/10 05:29:28;;;;;;;;;;;;;;;17.94;47.93;101724.75;4996100;28;20007;-35
2022/11/10 05:31:53;;;;;;;;;;;;;;;17.90;47.95;101729.91;4992379;28;19924;-34
2022/11/10 05:34:19;;;;;;;;;;;;;;;17.88;47.93;101744.84;4989275;28;19926;-35
2022/11/10 05:36:44;;;;;;;;;;;;;;;17.81;48.00;101745.94;4992702;28;20367;-35
2022/11/10 05:39:09;;;;;;;;;;;;;;;17.85;47.98;101748.09;4991023;28;20439;-35
2022/11/10 05:41:35;;;;;;;;;;;;;;;17.83;48.20;101755.69;4989905;28;19972;-35
2022/11/10 05:44:00;;;;;;;;;;;;;;;17.84;48.07;101754.59;4991648;28;19926;-35
2022/11/10 05:46:25;;;;;;;;;;;;;;;17.81;47.89;101762.19;4990686;28;19917;-34
2022/11/10 05:48:50;;;;;;;;;;;;;;;17.76;48.05;101769.50;4991821;28;19976;-34
2022/11/10 05:51:16;;;;;;;;;;;;;;;17.72;48.15;101774.66;4993111;28;19948;-35
2022/11/10 05:53:41;;;;;;;;;;;;;;;17.69;48.09;101779.81;4992155;28;19929;-35
2022/11/10 05:56:06;;;;;;;;;;;;;;;17.66;48.13;101789.25;4990480;28;19929;-35
2022/11/10 05:58:32;;;;;;;;;;;;;;;17.65;48.24;101798.47;4988845;28;19964;-35
2022/11/10 06:00:57;;;;;;;;;;;;;;;17.65;48.12;101801.19;4995686;28;19921;-35
2022/11/10 06:03:22;;;;;;;;;;;;;;;17.60;48.23;101798.50;4989722;28;19922;-35
2022/11/10 06:05:48;;;;;;;;;;;;;;;17.58;48.13;101814.16;4991199;28;19936;-34
2022/11/10 06:08:13;;;;;;;;;;;;;;;17.53;48.21;101812.28;4993015;28;19917;-34
2022/11/10 06:10:39;;;;;;;;;;;;;;;17.52;48.30;101815.25;4992588;28;20155;-35
2022/11/10 06:13:04;;;;;;;;;;;;;;;17.49;48.39;101823.94;4993220;28;19918;-35
2022/11/10 06:15:30;;;;;;;;;;;;;;;17.50;48.26;101837.22;4994902;28;19918;-34
2022/11/10 06:17:56;;;;;;;;;;;;;;;17.50;48.36;101836.41;4991904;28;21305;-35
2022/11/10 06:20:21;;;;;;;;;;;;;;;17.47;48.29;101840.44;4991912;28;20417;-35
2022/11/10 06:23:00;;;;;;;;;;;;;;;17.46;48.49;101843.44;4991420;28;19921;-34
2022/11/10 06:25:26;;;;;;;;;;;;;;;17.51;48.34;101848.84;4988298;28;20351;-35
2022/11/10 06:27:51;;;;;;;;;;;;;;;17.52;48.17;101853.19;4989959;28;20024;-34
2022/11/10 06:30:16;;;;;;;;;;;;;;;17.50;48.20;101863.50;4989494;28;20032;-34
2022/11/10 06:32:43;;;;;;;;;;;;;;;17.43;48.18;101865.66;4988680;28;20390;-34
2022/11/10 06:35:08;;;;;;;;;;;;;;;17.40;48.40;101868.88;4990816;28;19922;-35
2022/11/10 06:37:33;;;;;;;;;;;;;;;17.38;48.32;101882.69;4990194;28;19918;-34
2022/11/10 06:39:59;;;;;;;;;;;;;;;17.34;48.21;101884.28;4990528;28;20370;-34
2022/11/10 06:42:24;;;;;;;;;;;;;;;17.33;48.28;101885.38;4993680;28;19928;-34
2022/11/10 06:44:49;;;;;;;;;;;;;;;17.32;48.31;101888.34;4991521;28;19932;-34
2022/11/10 06:47:15;;;;;;;;;;;;;;;17.30;48.50;101895.94;4992201;28;19917;-34
2022/11/10 06:49:40;;;;;;;;;;;;;;;17.35;48.29;101898.66;4990912;28;19918;-35
2022/11/10 06:52:05;;;;;;;;;;;;;;;17.39;48.42;101910.59;4992821;28;19917;-35
2022/11/10 06:54:31;;;;;;;;;;;;;;;17.35;48.45;101915.72;4992354;28;20513;-34
2022/11/10 06:56:56;;;;;;;;;;;;;;;17.35;48.44;101918.44;4993040;28;19972;-35
2022/11/10 06:59:21;;;;;;;;;;;;;;;17.38;48.40;101919.78;4994172;28;19940;-34
2022/11/10 07:01:47;;;;;;;;;;;;;;;17.43;48.40;101919.84;4993880;28;19921;-35
2022/11/10 07:04:14;;;;;;;;;;;;;;;17.46;48.18;101930.94;4993823;28;20383;-34
2022/11/10 07:06:40;;;;;;;;;;;;;;;17.49;48.27;101935.84;4993503;28;19921;-35
2022/11/10 07:09:05;;;;;;;;;;;;;;;17.41;48.34;101941.75;4993352;28;19952;-34
2022/11/10 07:11:31;;;;;;;;;;;;;;;17.48;48.18;101946.94;4994058;28;19964;-35
2022/11/10 07:13:56;;;;;;;;;;;;;;;17.48;48.08;101950.47;4994219;28;19992;-35
2022/11/10 07:16:21;;;;;;;;;;;;;;;17.48;48.09;101960.47;4994306;28;19921;-35
2022/11/10 07:18:47;;;;;;;;;;;;;;;17.46;48.06;101968.88;4993995;28;19921;-34
2022/11/10 07:21:13;;;;;;;;;;;;;;;17.48;48.28;101966.72;4993687;28;19957;-34
2022/11/10 07:23:38;;;;;;;;;;;;;;;17.50;47.94;101969.16;4992373;28;19922;-34
2022/11/10 07:26:03;;;;;;;;;;;;;;;17.52;48.04;101975.13;4993711;28;19918;-35
2022/11/10 07:28:29;;;;;;;;;;;;;;;17.54;48.08;101983.81;4993186;28;19921;-35
2022/11/10 07:30:54;;;;;;;;;;;;;;;17.59;47.73;101986.53;4994135;28;19922;-34
2022/11/10 07:33:20;;;;;;;;;;;;;;;17.57;47.93;101979.75;4992403;28;19921;-35
2022/11/10 07:35:51;;;;;;;;;;;;;;;17.57;47.84;101996.81;4993803;28;19957;-35
2022/11/10 07:38:16;;;;;;;;;;;;;;;17.63;47.90;101992.25;4993596;28;19921;-34
2022/11/10 07:40:42;;;;;;;;;;;;;;;17.68;47.84;101995.00;4992842;28;19925;-35
2022/11/10 07:43:07;;;;;;;;;;;;;;;17.72;47.77;101998.81;4994057;28;20008;-34
2022/11/10 07:45:32;;;;;;;;;;;;;;;17.78;47.80;102009.44;4992742;28;20446;-35
2022/11/10 07:48:01;;;;;;;;;;;;;;;17.81;47.74;102017.03;4993242;28;20454;-35
2022/11/10 07:50:27;;;;;;;;;;;;;;;17.84;47.80;102020.28;4992121;28;20204;-34
2022/11/10 07:53:00;;;;;;;;;;;;;;;17.88;47.69;102021.38;4992029;28;20398;-34
2022/11/10 07:55:25;;;;;;;;;;;;;;;17.91;47.73;102015.41;4993253;28;19922;-34
2022/11/10 07:57:55;;;;;;;;;;;;;;;18.00;47.51;102024.69;4992960;28;19929;-35
2022/11/10 08:00:21;;;;;;;;;;;;;;;17.99;47.26;102023.88;4994447;28;20219;-35
2022/11/10 08:02:46;;;;;;;;;;;;;;;18.01;47.37;102026.31;4992668;28;19917;-35
2022/11/10 08:05:11;;;;;;;;;;;;;;;18.02;47.50;102022.50;4991950;28;19928;-35
2022/11/10 08:07:37;;;;;;;;;;;;;;;18.10;47.49;102035.53;4992831;28;20023;-35
2022/11/10 08:10:02;;;;;;;;;;;;;;;18.16;47.19;102037.19;4992165;28;20009;-34
2022/11/10 08:12:27;;;;;;;;;;;;;;;18.16;46.95;102039.91;4992870;28;19917;-35
2022/11/10 08:14:53;;;;;;;;;;;;;;;18.20;47.02;102038.28;4992206;28;20371;-34
2022/11/10 08:17:18;;;;;;;;;;;;;;;18.28;47.15;102048.59;4992913;28;19928;-35
2022/11/10 08:19:43;;;;;;;;;;;;;;;18.36;47.00;102048.09;4992304;28;19924;-34
2022/11/10 08:22:09;;;;;;;;;;;;;;;18.46;46.92;102057.31;4991925;28;20008;-35
2022/11/10 08:24:34;;;;;;;;;;;;;;;18.53;46.61;102060.59;4992042;28;19929;-34
2022/11/10 08:26:59;;;;;;;;;;;;;;;18.54;46.43;102060.34;4992146;28;20466;-35
2022/11/10 08:29:24;;;;;;;;;;;;;;;18.64;46.63;102064.97;4992991;28;19922;-35
2022/11/10 08:31:50;;;;;;;;;;;;;;;18.79;46.90;102067.72;4992956;28;19957;-34
2022/11/10 08:34:16;;;;;;;;;;;;;;;18.82;46.11;102069.88;4991355;28;19917;-34
2022/11/10 08:36:41;;;;;;;;;;;;;;;18.80;46.43;102072.03;4991871;28;20282;-34
2022/11/10 08:39:06;;;;;;;;;;;;;;;18.84;46.31;102084.00;4991999;28;20396;-35
2022/11/10 08:41:32;;;;;;;;;;;;;;;18.92;46.06;102085.38;4991706;28;20438;-35
2022/11/10 08:43:58;;;;;;;;;;;;;;;18.98;45.94;102095.94;4991655;28;19922;-35
2022/11/10 08:46:23;;;;;;;;;;;;;;;19.06;46.09;102094.59;4991886;28;19917;-35
2022/11/10 08:48:48;;;;;;;;;;;;;;;19.13;46.06;102097.03;4992064;28;19925;-34
2022/11/10 08:51:14;;;;;;;;;;;;;;;19.28;46.03;102086.16;4990684;28;20388;-35
2022/11/10 08:53:39;;;;;;;;;;;;;;;19.32;45.64;102092.66;4990424;28;20017;-35
2022/11/10 08:56:04;;;;;;;;;;;;;;;19.36;45.67;102091.03;4991395;28;19924;-35
2022/11/10 08:58:30;;;;;;;;;;;;;;;19.49;45.88;102103.25;4991110;28;20145;-35
2022/11/10 09:00:55;;;;;;;;;;;;;;;19.54;45.74;102106.78;4991381;28;19968;-35
2022/11/10 09:03:22;;;;;;;;;;;;;;;19.66;45.44;102116.56;4989904;28;20071;-35
2022/11/10 09:05:48;;;;;;;;;;;;;;;19.76;45.30;102111.09;4991141;28;20419;-35
2022/11/10 09:08:14;;;;;;;;;;;;;;;19.68;45.15;102120.63;4991000;28;19952;-35
2022/11/10 09:10:41;;;;;;;;;;;;;;;19.72;44.83;102118.16;4990956;28;19948;-35
2022/11/10 09:13:06;;;;;;;;;;;;;;;19.78;44.86;102126.06;4991215;28;19989;-35
2022/11/10 09:15:32;;;;;;;;;;;;;;;19.80;44.92;102128.50;4991329;28;19953;-35
2022/11/10 09:18:01;;;;;;;;;;;;;;;19.90;44.72;102139.31;4990910;28;20152;-35
2022/11/10 09:20:27;;;;;;;;;;;;;;;19.90;44.96;102140.13;4991269;28;19918;-35
2022/11/10 09:22:53;;;;;;;;;;;;;;;19.97;44.91;102139.06;4990719;28;19922;-35
2022/11/10 09:25:18;;;;;;;;;;;;;;;20.08;44.77;102152.31;4990887;28;19932;-35
2022/11/10 09:27:43;;;;;;;;;;;;;;;20.12;44.89;102156.13;4990950;28;20398;-36
2022/11/10 09:30:09;;;;;;;;;;;;;;;20.20;44.55;102154.72;4990565;28;19977;-35
2022/11/10 09:32:35;;;;;;;;;;;;;;;20.29;44.59;102158.53;4991083;28;19976;-36
2022/11/10 09:35:00;;;;;;;;;;;;;;;20.40;44.56;102159.28;4990231;28;20483;-35
2022/11/10 09:37:26;;;;;;;;;;;;;;;20.50;44.24;102165.53;4991124;28;20441;-35
2022/11/10 09:39:51;;;;;;;;;;;;;;;20.57;44.18;102165.19;4990460;28;19932;-35
2022/11/10 09:42:33;;;;;;;;;;;;;;;20.61;44.03;102162.72;4990527;28;19926;-35
2022/11/10 09:45:10;;;;;;;;;;;;;;;20.72;43.79;102173.28;4990365;28;19929;-35
2022/11/10 09:47:44;;;;;;;;;;;;;;;20.72;43.69;102162.41;4990639;28;19925;-35
2022/11/10 09:50:14;;;;;;;;;;;;;;;20.74;43.43;102176.53;4991323;28;19922;-35
2022/11/10 09:52:40;;;;;;;;;;;;;;;20.73;43.52;102169.47;4990087;28;20412;-35
2022/11/10 09:55:05;;;;;;;;;;;;;;;20.73;43.69;102172.19;4990040;28;19917;-35
2022/11/10 09:57:31;;;;;;;;;;;;;;;20.81;42.99;102181.66;4990409;28;19918;-35
2022/11/10 09:59:56;;;;;;;;;;;;;;;20.93;43.57;102173.16;4990006;28;19925;-35
2022/11/10 10:02:22;;;;;;;;;;;;;;;20.93;43.01;102175.88;4990282;28;19921;-35
2022/11/10 10:04:56;;;;;;;;;;;;;;;20.93;42.79;102173.16;4990020;28;19922;-35
2022/11/10 10:07:23;;;;;;;;;;;;;;;20.83;42.76;102178.69;4989832;28;21323;-35
2022/11/10 10:09:49;;;;;;;;;;;;;;;20.75;42.88;102178.16;4990525;28;19944;-35
2022/11/10 10:12:14;;;;;;;;;;;;;;;20.80;43.29;102180.03;4989719;28;20415;-34
2022/11/10 10:14:45;;;;;;;;;;;;;;;20.90;42.88;102190.06;4989679;28;19922;-36
2022/11/10 10:17:17;;;;;;;;;;;;;;;20.96;43.08;102188.94;4991479;28;19918;-35
2022/11/10 10:19:42;;;;;;;;;;;;;;;21.11;42.63;102189.63;4989572;28;19918;-36
2022/11/10 10:22:17;;;;;;;;;;;;;;;21.18;42.79;102197.47;4990086;28;19917;-35
2022/11/10 10:24:42;;;;;;;;;;;;;;;21.14;42.58;102188.25;4989336;28;20449;-35
2022/11/10 10:27:11;;;;;;;;;;;;;;;21.09;42.21;102193.75;4989171;28;20206;-36
2022/11/10 10:29:38;;;;;;;;;;;;;;;21.06;42.42;102199.78;4989504;28;19918;-35
2022/11/10 10:32:07;;;;;;;;;;;;;;;21.02;42.48;102196.00;4989427;28;20276;-35
2022/11/10 10:34:33;;;;;;;;;;;;;;;21.02;42.04;102198.72;4987575;28;19961;-35
2022/11/10 10:36:59;;;;;;;;;;;;;;;20.92;42.31;102196.84;4989240;28;20120;-35
2022/11/10 10:39:30;;;;;;;;;;;;;;;20.98;42.13;102192.19;4990485;28;19922;-34
2022/11/10 10:41:56;;;;;;;;;;;;;;;20.99;42.09;102201.97;4989937;28;19918;-34
2022/11/10 10:44:22;;;;;;;;;;;;;;;21.00;41.93;102198.97;4989170;28;19929;-34
2022/11/10 10:46:50;;;;;;;;;;;;;;;20.99;42.40;102200.06;4989113;28;19918;-34
2022/11/10 10:49:18;;;;;;;;;;;;;;;21.17;42.49;102189.59;4989381;28;19965;-34
2022/11/10 10:51:44;;;;;;;;;;;;;;;21.27;42.16;102201.28;4989616;28;19996;-34
2022/11/10 10:54:26;;;;;;;;;;;;;;;21.24;41.41;102198.28;4988707;28;20004;-34
2022/11/10 10:57:10;;;;;;;;;;;;;;;21.10;41.68;102201.63;4989853;28;19925;-34
2022/11/10 10:59:36;;;;;;;;;;;;;;;21.07;42.07;102196.75;4989748;28;19918;-34
2022/11/10 11:02:01;;;;;;;;;;;;;;;21.17;42.37;102212.22;4989163;28;19983;-34
2022/11/10 11:04:34;;;;;;;;;;;;;;;21.34;42.34;102217.28;4989163;28;19984;-34
2022/11/10 11:07:03;;;;;;;;;;;;;;;21.55;41.60;102220.69;4989446;28;19932;-34
2022/11/10 11:09:38;;;;;;;;;;;;;;;21.67;41.67;102232.81;4990086;28;19933;-34
2022/11/10 11:12:10;;;;;;;;;;;;;;;21.79;41.65;102224.28;4989103;28;19925;-34
2022/11/10 11:14:35;;;;;;;;;;;;;;;21.78;41.57;102222.66;4989108;28;20372;-34
2022/11/10 11:17:10;;;;;;;;;;;;;;;21.83;41.84;102222.59;4989391;28;19928;-34
2022/11/10 11:19:36;;;;;;;;;;;;;;;22.01;41.80;102226.50;4989371;28;20012;-35
2022/11/10 11:22:20;;;;;;;;;;;;;;;22.09;41.21;102233.28;4989282;28;20454;-34
2022/11/10 11:25:04;;;;;;;;;;;;;;;22.08;41.34;102226.16;4988538;28;19926;-34
2022/11/10 11:27:32;;;;;;;;;;;;;;;22.00;41.01;102233.88;4993895;28;19918;-34
2022/11/10 11:30:08;;;;;;;;;;;;;;;21.99;41.19;102229.50;4992863;28;19924;-35
2022/11/10 11:32:52;;;;;;;;;;;;;;;21.94;41.04;102229.56;4992727;28;20171;-35
2022/11/10 11:35:32;;;;;;;;;;;;;;;21.91;40.91;102226.63;4992508;28;19928;-35
2022/11/10 11:38:07;;;;;;;;;;;;;;;21.91;40.72;102237.53;4993088;28;19933;-35
2022/11/10 11:40:33;;;;;;;;;;;;;;;21.97;41.02;102236.38;4993673;28;19925;-35
2022/11/10 11:43:08;;;;;;;;;;;;;;;21.84;40.63;102235.13;4993085;28;19922;-35
2022/11/10 11:45:33;;;;;;;;;;;;;;;21.79;40.72;102237.09;4991779;28;19921;-35
2022/11/10 11:47:58;;;;;;;;;;;;;;;21.64;40.76;102235.31;4992922;28;20316;-35
2022/11/10 11:50:27;;;;;;;;;;;;;;;21.51;40.84;102244.16;4992790;28;19929;-35
2022/11/10 11:53:22;;;;;;;;;;;;;;;21.38;41.02;102242.91;4992420;28;20371;-34
2022/11/10 11:56:02;;;;;;;;;;;;;;;21.31;40.84;102240.50;4993138;28;19924;-34
2022/11/10 11:58:34;;;;;;;;;;;;;;;21.26;41.25;102240.53;4992958;28;19922;-34
2022/11/10 12:01:10;;;;;;;;;;;;;;;21.34;41.51;102239.09;4992675;28;19974;-34
2022/11/10 12:03:46;;;;;;;;;;;;;;;21.51;41.29;102238.69;4992247;28;19918;-35
2022/11/10 12:06:14;;;;;;;;;;;;;;;21.66;40.71;102252.22;4986586;28;19969;-34
2022/11/10 12:08:43;;;;;;;;;;;;;;;21.73;40.53;102255.44;4992009;28;20346;-35
2022/11/10 12:11:17;;;;;;;;;;;;;;;21.72;40.67;102248.31;4992871;28;19985;-35
2022/11/10 12:13:45;;;;;;;;;;;;;;;21.74;40.42;102253.53;4991904;28;20354;-35
2022/11/10 12:16:11;;;;;;;;;;;;;;;21.74;40.74;102248.06;4997243;28;19924;-34
2022/11/10 12:18:40;;;;;;;;;;;;;;;21.79;40.39;102251.56;4983323;28;20073;-35
2022/11/10 12:21:26;;;;;;;;;;;;;;;21.87;40.31;102258.28;4987681;28;20015;-35
2022/11/10 12:23:52;;;;;;;;;;;;;;;21.92;40.31;102241.88;4986264;28;20528;-35
2022/11/10 12:26:20;;;;;;;;;;;;;;;22.00;40.60;102247.50;4995917;28;20296;-35
2022/11/10 12:28:52;;;;;;;;;;;;;;;22.05;40.29;102252.13;4988353;28;19921;-35
2022/11/10 12:31:24;;;;;;;;;;;;;;;21.98;40.45;102248.91;4990170;28;19996;-35
2022/11/10 12:33:55;;;;;;;;;;;;;;;21.94;39.98;102258.78;4987215;28;20078;-35
2022/11/10 12:36:21;;;;;;;;;;;;;;;21.67;40.52;102256.56;4985767;28;20386;-35
2022/11/10 12:38:52;;;;;;;;;;;;;;;21.60;40.62;102258.81;4990276;28;20208;-35
2022/11/10 12:41:20;;;;;;;;;;;;;;;21.61;40.47;102260.44;4990076;28;20004;-35
2022/11/10 12:44:15;;;;;;;;;;;;;;;21.64;40.47;102278.97;4987706;28;19917;-35
2022/11/10 12:46:42;;;;;;;;;;;;;;;21.59;40.61;102287.19;4992900;28;19933;-35
2022/11/10 12:49:37;;;;;;;;;;;;;;;21.54;40.64;102284.47;4989074;28;20095;-34